createdAt,value
2019-02-12T00:01:16.335Z,1.70
2019-02-12T00:03:43.970Z,1.70
2019-02-12T00:06:13.281Z,1.70
2019-02-12T00:08:40.673Z,1.70
2019-02-12T00:11:09.105Z,1.70
2019-02-12T00:13:36.627Z,1.80
2019-02-12T00:16:03.998Z,1.80
2019-02-12T00:18:31.553Z,1.80
2019-02-12T00:20:59.017Z,1.90
2019-02-12T00:23:26.504Z,1.90
2019-02-12T00:25:53.989Z,1.90
2019-02-12T00:28:21.484Z,2.00
2019-02-12T00:30:49.031Z,1.90
2019-02-12T00:33:18.556Z,1.90
2019-02-12T00:35:46.038Z,1.90
2019-02-12T00:38:13.689Z,2.00
2019-02-12T00:40:42.461Z,2.00
2019-02-12T00:43:11.554Z,2.00
2019-02-12T00:45:39.348Z,2.00
2019-02-12T00:48:06.831Z,2.00
2019-02-12T00:50:34.342Z,2.00
2019-02-12T00:53:02.059Z,2.00
2019-02-12T00:55:29.585Z,2.00
2019-02-12T00:57:57.205Z,2.00
2019-02-12T01:00:24.960Z,2.00
2019-02-12T01:02:52.459Z,2.00
2019-02-12T01:05:19.956Z,2.00
2019-02-12T01:07:48.507Z,2.10
2019-02-12T01:10:16.017Z,2.10
2019-02-12T01:12:43.523Z,2.10
2019-02-12T01:15:12.152Z,2.20
2019-02-12T01:17:39.684Z,2.20
2019-02-12T01:20:09.311Z,2.20
2019-02-12T01:22:36.840Z,2.20
2019-02-12T01:25:05.291Z,2.20
2019-02-12T01:27:32.624Z,2.30
2019-02-12T01:30:00.232Z,2.30
2019-02-12T01:32:27.808Z,2.40
2019-02-12T01:34:55.316Z,2.40
2019-02-12T01:37:23.171Z,2.40
2019-02-12T01:39:51.232Z,2.40
2019-02-12T01:42:18.739Z,2.40
2019-02-12T01:44:46.434Z,2.40
2019-02-12T01:47:14.208Z,2.50
2019-02-12T01:49:41.689Z,2.40
2019-02-12T01:52:09.051Z,2.50
2019-02-12T01:54:36.682Z,2.50
2019-02-12T01:57:04.185Z,2.50
2019-02-12T01:59:31.560Z,2.50
2019-02-12T02:01:59.024Z,2.50
2019-02-12T02:04:26.388Z,2.50
2019-02-12T02:06:53.880Z,2.50
2019-02-12T02:09:21.339Z,2.50
2019-02-12T02:11:49.083Z,2.50
2019-02-12T02:14:16.559Z,2.50
2019-02-12T02:16:44.543Z,2.50
2019-02-12T02:19:12.383Z,2.50
2019-02-12T02:21:44.167Z,2.50
2019-02-12T02:24:09.641Z,2.50
2019-02-12T02:26:37.291Z,2.50
2019-02-12T02:29:04.891Z,2.50
2019-02-12T02:31:32.459Z,2.50
2019-02-12T02:33:59.963Z,2.50
2019-02-12T02:36:27.429Z,2.50
2019-02-12T02:38:55.034Z,2.50
2019-02-12T02:41:22.519Z,2.50
2019-02-12T02:43:49.952Z,2.50
2019-02-12T02:46:17.521Z,2.50
2019-02-12T02:48:45.013Z,2.50
2019-02-12T02:51:12.621Z,2.50
2019-02-12T02:53:40.106Z,2.50
2019-02-12T02:56:07.588Z,2.50
2019-02-12T02:58:37.060Z,2.50
2019-02-12T03:01:04.635Z,2.40
2019-02-12T03:03:32.221Z,2.40
2019-02-12T03:05:59.983Z,2.40
2019-02-12T03:08:27.496Z,2.40
2019-02-12T03:10:54.988Z,2.40
2019-02-12T03:13:22.520Z,2.40
2019-02-12T03:15:49.988Z,2.30
2019-02-12T03:18:17.448Z,2.40
2019-02-12T03:20:46.904Z,2.30
2019-02-12T03:23:14.344Z,2.30
2019-02-12T03:25:41.848Z,2.30
2019-02-12T03:28:09.708Z,2.30
2019-02-12T03:30:37.087Z,2.30
2019-02-12T03:33:04.789Z,2.30
2019-02-12T03:35:32.487Z,2.30
2019-02-12T03:37:59.947Z,2.30
2019-02-12T03:40:27.460Z,2.30
2019-02-12T03:42:54.980Z,2.30
2019-02-12T03:45:22.775Z,2.30
2019-02-12T03:47:50.296Z,2.30
2019-02-12T03:50:17.764Z,2.30
2019-02-12T03:52:45.239Z,2.30
2019-02-12T03:55:12.790Z,2.30
2019-02-12T03:57:40.666Z,2.30
2019-02-12T04:00:11.110Z,2.30
2019-02-12T04:02:57.900Z,2.30
2019-02-12T04:05:25.528Z,2.30
2019-02-12T04:07:53.018Z,2.30
2019-02-12T04:10:20.512Z,2.30
2019-02-12T04:12:48.020Z,2.30
2019-02-12T04:15:15.539Z,2.30
2019-02-12T04:17:43.034Z,2.30
2019-02-12T04:20:10.623Z,2.30
2019-02-12T04:22:38.063Z,2.30
2019-02-12T04:25:05.689Z,2.30
2019-02-12T04:27:33.262Z,2.30
2019-02-12T04:30:00.759Z,2.30
2019-02-12T04:32:28.254Z,2.30
2019-02-12T04:34:55.698Z,2.30
2019-02-12T04:37:23.165Z,2.20
2019-02-12T04:39:50.683Z,2.20
2019-02-12T04:42:18.031Z,2.20
2019-02-12T04:44:45.936Z,2.20
2019-02-12T04:47:13.458Z,2.20
2019-02-12T04:49:40.949Z,2.20
2019-02-12T04:52:08.508Z,2.20
2019-02-12T04:54:36.356Z,2.20
2019-02-12T04:57:03.896Z,2.20
2019-02-12T04:59:31.620Z,2.20
2019-02-12T05:01:59.194Z,2.20
2019-02-12T05:04:26.900Z,2.20
2019-02-12T05:06:54.415Z,2.20
2019-02-12T05:09:22.144Z,2.20
2019-02-12T05:11:58.049Z,2.20
2019-02-12T05:14:25.533Z,2.20
2019-02-12T05:16:53.305Z,2.20
2019-02-12T05:19:20.785Z,2.20
2019-02-12T05:21:48.305Z,2.20
2019-02-12T05:24:16.075Z,2.20
2019-02-12T05:26:43.623Z,2.20
2019-02-12T05:29:11.145Z,2.20
2019-02-12T05:31:38.604Z,2.20
2019-02-12T05:34:06.088Z,2.20
2019-02-12T05:36:33.619Z,2.20
2019-02-12T05:39:01.217Z,2.30
2019-02-12T05:41:29.975Z,2.30
2019-02-12T05:43:58.368Z,2.30
2019-02-12T05:46:25.875Z,2.30
2019-02-12T05:48:53.356Z,2.30
2019-02-12T05:51:21.166Z,2.30
2019-02-12T05:53:48.702Z,2.30
2019-02-12T05:56:16.050Z,2.20
2019-02-12T05:58:43.540Z,2.30
2019-02-12T06:01:10.979Z,2.30
2019-02-12T06:03:38.489Z,2.30
2019-02-12T06:06:05.951Z,2.20
2019-02-12T06:08:33.276Z,2.20
2019-02-12T06:11:00.623Z,2.30
2019-02-12T06:13:28.135Z,2.30
2019-02-12T06:15:55.511Z,2.30
2019-02-12T06:18:22.981Z,2.30
2019-02-12T06:20:50.473Z,2.30
2019-02-12T06:23:17.948Z,2.30
2019-02-12T06:25:45.464Z,2.40
2019-02-12T06:28:12.945Z,2.30
2019-02-12T06:30:40.563Z,2.40
2019-02-12T06:33:08.218Z,2.40
2019-02-12T06:35:35.536Z,2.30
2019-02-12T06:38:03.055Z,2.40
2019-02-12T06:40:30.403Z,2.40
2019-02-12T06:42:58.030Z,2.40
2019-02-12T06:45:25.484Z,2.40
2019-02-12T06:47:52.930Z,2.40
2019-02-12T06:50:20.476Z,2.40
2019-02-12T06:52:48.056Z,2.40
2019-02-12T06:55:15.489Z,2.50
2019-02-12T06:57:42.872Z,2.40
2019-02-12T07:00:10.403Z,2.40
2019-02-12T07:03:15.841Z,2.40
2019-02-12T07:06:07.811Z,2.50
2019-02-12T07:08:51.933Z,2.40
2019-02-12T07:11:50.924Z,2.40
2019-02-12T07:14:54.692Z,2.50
2019-02-12T07:17:48.959Z,2.40
2019-02-12T07:20:46.131Z,2.50
2019-02-12T07:23:57.889Z,2.40
2019-02-12T07:27:07.044Z,2.50
2019-02-12T07:30:28.608Z,2.40
2019-02-12T07:34:02.518Z,2.40
2019-02-12T07:36:59.539Z,2.40
2019-02-12T07:39:57.403Z,2.40
2019-02-12T07:42:55.358Z,2.40
2019-02-12T07:45:56.319Z,2.50
2019-02-12T07:49:01.571Z,2.50
2019-02-12T07:52:01.275Z,2.50
2019-02-12T07:54:44.333Z,2.60
2019-02-12T07:58:01.834Z,2.60
2019-02-12T08:01:07.798Z,2.70
2019-02-12T08:04:26.146Z,2.70
2019-02-12T08:07:12.021Z,2.70
2019-02-12T08:10:30.322Z,2.80
2019-02-12T08:13:45.578Z,2.80
2019-02-12T08:16:46.184Z,2.80
2019-02-12T08:20:10.753Z,2.90
2019-02-12T08:23:23.780Z,2.90
2019-02-12T08:26:17.905Z,2.90
2019-02-12T08:29:13.572Z,3.00
2019-02-12T08:31:52.547Z,3.00
2019-02-12T08:34:50.596Z,3.00
2019-02-12T08:37:36.529Z,3.00
2019-02-12T08:40:44.657Z,3.10
2019-02-12T08:43:38.405Z,3.10
2019-02-12T08:46:24.771Z,3.10
2019-02-12T08:49:37.036Z,3.20
2019-02-12T08:52:46.512Z,3.20
2019-02-12T08:55:46.152Z,3.20
2019-02-12T08:58:38.177Z,3.30
2019-02-12T09:01:45.812Z,3.30
2019-02-12T09:04:38.319Z,3.40
2019-02-12T09:07:56.887Z,3.40
2019-02-12T09:11:01.873Z,3.40
2019-02-12T09:13:47.077Z,3.50
2019-02-12T09:17:20.576Z,3.50
2019-02-12T09:20:29.932Z,3.50
2019-02-12T09:23:47.375Z,3.50
2019-02-12T09:26:57.512Z,3.60
2019-02-12T09:30:02.428Z,3.70
2019-02-12T09:33:13.826Z,3.70
2019-02-12T09:36:32.430Z,3.80
2019-02-12T09:39:37.481Z,3.80
2019-02-12T09:42:26.791Z,3.90
2019-02-12T09:45:25.806Z,4.00
2019-02-12T09:48:24.528Z,4.10
2019-02-12T09:51:05.650Z,4.10
2019-02-12T09:53:57.506Z,4.10
2019-02-12T09:57:00.793Z,4.20
2019-02-12T10:00:08.209Z,4.20
2019-02-12T10:03:26.832Z,4.20
2019-02-12T10:06:35.197Z,4.20
2019-02-12T10:09:37.415Z,4.20
2019-02-12T10:12:27.563Z,4.20
2019-02-12T10:15:24.646Z,4.20
2019-02-12T10:18:49.639Z,4.30
2019-02-12T10:22:07.163Z,4.30
2019-02-12T10:25:11.788Z,4.10
2019-02-12T10:28:13.533Z,4.20
2019-02-12T10:31:06.554Z,4.20
2019-02-12T10:33:35.281Z,4.20
2019-02-12T10:36:02.965Z,4.30
2019-02-12T10:38:30.388Z,4.20
2019-02-12T10:40:57.959Z,4.20
2019-02-12T10:43:25.476Z,4.20
2019-02-12T10:45:53.093Z,4.10
2019-02-12T10:48:20.529Z,4.10
2019-02-12T10:50:48.078Z,4.20
2019-02-12T10:53:15.561Z,4.20
2019-02-12T10:55:43.178Z,4.20
2019-02-12T10:58:10.650Z,4.30
2019-02-12T11:00:38.266Z,4.30
2019-02-12T11:03:06.258Z,4.30
2019-02-12T11:05:33.764Z,4.40
2019-02-12T11:08:01.223Z,4.30
2019-02-12T11:10:29.938Z,4.40
2019-02-12T11:12:57.420Z,4.40
2019-02-12T11:15:24.926Z,4.40
2019-02-12T11:17:52.380Z,4.40
2019-02-12T11:20:19.853Z,4.50
2019-02-12T11:22:47.567Z,4.60
2019-02-12T11:25:15.535Z,4.50
2019-02-12T11:27:43.041Z,4.50
2019-02-12T11:30:10.483Z,4.40
2019-02-12T11:32:38.012Z,4.50
2019-02-12T11:35:06.023Z,4.40
2019-02-12T11:37:34.579Z,4.40
2019-02-12T11:40:02.046Z,4.50
2019-02-12T11:42:30.195Z,4.50
2019-02-12T11:44:57.703Z,4.50
2019-02-12T11:47:25.160Z,4.60
2019-02-12T11:49:52.790Z,4.60
2019-02-12T11:52:20.589Z,4.50
2019-02-12T11:54:48.192Z,4.60
2019-02-12T11:57:15.969Z,4.60
2019-02-12T11:59:43.526Z,4.60
2019-02-12T12:02:11.009Z,4.60
2019-02-12T12:04:38.564Z,4.70
2019-02-12T12:07:06.164Z,4.60
2019-02-12T12:09:33.658Z,4.60
2019-02-12T12:12:01.193Z,4.60
2019-02-12T12:14:28.691Z,4.60
2019-02-12T12:16:56.097Z,4.60
2019-02-12T12:19:23.582Z,4.60
2019-02-12T12:21:51.401Z,4.60
2019-02-12T12:24:19.029Z,4.60
2019-02-12T12:26:46.877Z,4.60
2019-02-12T12:29:14.371Z,4.70
2019-02-12T12:31:41.883Z,4.60
2019-02-12T12:34:09.690Z,4.60
2019-02-12T12:36:37.146Z,4.60
2019-02-12T12:39:05.368Z,4.60
2019-02-12T12:41:34.792Z,4.70
2019-02-12T12:44:02.672Z,4.70
2019-02-12T12:46:30.879Z,4.60
2019-02-12T12:48:59.292Z,4.60
2019-02-12T12:51:27.872Z,4.60
2019-02-12T12:53:55.329Z,4.60
2019-02-12T12:56:22.787Z,4.60
2019-02-12T12:58:50.347Z,4.60
2019-02-12T13:01:17.788Z,4.70
2019-02-12T13:03:45.239Z,4.80
2019-02-12T13:06:12.796Z,4.80
2019-02-12T13:08:40.299Z,4.80
2019-02-12T13:11:07.789Z,4.70
2019-02-12T13:13:35.282Z,4.80
2019-02-12T13:16:03.082Z,4.80
2019-02-12T13:18:30.831Z,4.80
2019-02-12T13:20:58.515Z,4.90
2019-02-12T13:23:26.025Z,4.90
2019-02-12T13:25:53.468Z,5.00
2019-02-12T13:28:20.940Z,5.00
2019-02-12T13:30:48.540Z,5.10
2019-02-12T13:33:16.032Z,5.10
2019-02-12T13:35:43.521Z,5.10
2019-02-12T13:38:11.055Z,5.10
2019-02-12T13:40:38.901Z,5.20
2019-02-12T13:43:06.595Z,5.20
2019-02-12T13:45:34.087Z,5.20
2019-02-12T13:48:03.457Z,5.20
2019-02-12T13:50:31.591Z,5.20
2019-02-12T13:52:59.481Z,5.20
2019-02-12T13:55:27.026Z,5.20
2019-02-12T13:57:54.605Z,5.20
2019-02-12T14:00:22.366Z,5.20
2019-02-12T14:02:49.883Z,5.20
2019-02-12T14:05:17.642Z,5.20
2019-02-12T14:07:45.259Z,5.30
2019-02-12T14:10:13.309Z,5.20
2019-02-12T14:12:41.955Z,5.30
2019-02-12T14:15:10.582Z,5.30
2019-02-12T14:17:38.539Z,5.30
2019-02-12T14:20:08.264Z,5.30
2019-02-12T14:22:35.919Z,5.30
2019-02-12T14:25:04.297Z,5.30
2019-02-12T14:27:32.936Z,5.40
2019-02-12T14:30:00.454Z,5.40
2019-02-12T14:32:27.941Z,5.30
2019-02-12T14:34:55.419Z,5.30
2019-02-12T14:37:22.971Z,5.30
2019-02-12T14:39:50.520Z,5.40
2019-02-12T14:42:18.298Z,5.30
2019-02-12T14:44:45.830Z,5.30
2019-02-12T14:47:13.320Z,5.40
2019-02-12T14:49:40.760Z,5.30
2019-02-12T14:52:08.276Z,5.30
2019-02-12T14:54:35.748Z,5.30
2019-02-12T14:57:03.127Z,5.30
2019-02-12T14:59:31.357Z,5.20
2019-02-12T15:01:58.890Z,5.20
2019-02-12T15:04:26.359Z,5.10
2019-02-12T15:06:53.876Z,5.10
2019-02-12T15:09:22.474Z,5.20
2019-02-12T15:11:50.314Z,5.20
2019-02-12T15:14:18.256Z,5.10
2019-02-12T15:16:45.723Z,5.10
2019-02-12T15:19:13.281Z,5.10
2019-02-12T15:21:40.875Z,5.10
2019-02-12T15:24:08.491Z,5.10
2019-02-12T15:26:35.987Z,5.10
2019-02-12T15:29:03.494Z,5.10
2019-02-12T15:31:31.122Z,5.10
2019-02-12T15:33:58.604Z,5.10
2019-02-12T15:36:26.098Z,5.00
2019-02-12T15:46:21.107Z,5.00
2019-02-12T15:48:48.507Z,4.90
2019-02-12T15:51:15.962Z,4.90
2019-02-12T15:53:43.896Z,4.90
2019-02-12T15:56:11.353Z,4.80
2019-02-12T15:58:38.943Z,4.80
2019-02-12T16:01:06.494Z,4.80
2019-02-12T16:03:37.724Z,4.80
2019-02-12T16:06:05.742Z,4.70
2019-02-12T16:08:33.159Z,4.70
2019-02-12T16:11:00.670Z,4.70
2019-02-12T16:13:28.277Z,4.70
2019-02-12T16:15:55.770Z,4.70
2019-02-12T16:18:24.817Z,4.70
2019-02-12T16:20:52.943Z,4.70
2019-02-12T16:23:21.766Z,4.60
2019-02-12T16:25:49.518Z,4.60
2019-02-12T16:28:16.988Z,4.60
2019-02-12T16:30:44.469Z,4.50
2019-02-12T16:33:11.975Z,4.50
2019-02-12T16:35:39.816Z,4.50
2019-02-12T16:38:07.222Z,4.40
2019-02-12T16:40:34.647Z,4.40
2019-02-12T16:43:02.019Z,4.40
2019-02-12T16:45:43.130Z,4.40
2019-02-12T16:48:10.606Z,4.30
2019-02-12T16:50:39.171Z,4.30
2019-02-12T16:53:06.751Z,4.30
2019-02-12T16:55:34.265Z,4.30
2019-02-12T16:58:01.785Z,4.30
2019-02-12T17:00:29.328Z,4.20
2019-02-12T17:02:57.039Z,4.30
2019-02-12T17:05:24.649Z,4.20
2019-02-12T17:07:52.228Z,4.20
2019-02-12T17:10:20.149Z,4.20
2019-02-12T17:12:47.607Z,4.10
2019-02-12T17:15:15.266Z,4.10
2019-02-12T17:17:42.990Z,4.00
2019-02-12T17:20:13.257Z,4.00
2019-02-12T17:22:42.533Z,3.90
2019-02-12T17:25:10.118Z,3.90
2019-02-12T17:27:38.541Z,3.90
2019-02-12T17:30:07.901Z,3.80
2019-02-12T17:32:35.516Z,3.80
2019-02-12T17:35:02.994Z,3.70
2019-02-12T17:37:31.690Z,3.70
2019-02-12T17:39:59.143Z,3.60
2019-02-12T17:42:26.809Z,3.60
2019-02-12T17:44:54.281Z,3.60
2019-02-12T17:47:21.773Z,3.60
2019-02-12T17:49:50.312Z,3.50
2019-02-12T17:52:17.769Z,3.40
2019-02-12T17:54:45.407Z,3.40
2019-02-12T17:57:12.849Z,3.40
2019-02-12T17:59:40.340Z,3.30
2019-02-12T18:02:08.326Z,3.30
2019-02-12T18:04:35.775Z,3.30
2019-02-12T18:07:03.291Z,3.30
2019-02-12T18:09:30.739Z,3.20
2019-02-12T18:11:58.216Z,3.30
2019-02-12T18:14:25.664Z,3.20
2019-02-12T18:16:53.081Z,3.20
2019-02-12T18:19:20.454Z,3.10
2019-02-12T18:21:47.805Z,3.10
2019-02-12T18:24:15.392Z,3.00
2019-02-12T18:26:43.614Z,3.00
2019-02-12T18:29:11.124Z,2.90
2019-02-12T18:31:38.826Z,2.90
2019-02-12T18:34:06.350Z,2.90
2019-02-12T18:36:33.799Z,2.90
2019-02-12T18:39:01.305Z,2.80
2019-02-12T18:41:30.642Z,2.80
2019-02-12T18:43:57.985Z,2.80
2019-02-12T18:46:25.473Z,2.80
2019-02-12T18:48:52.967Z,2.70
2019-02-12T18:51:20.520Z,2.60
2019-02-12T18:53:48.112Z,2.60
2019-02-12T18:56:15.578Z,2.60
2019-02-12T18:58:43.280Z,2.60
2019-02-12T19:01:10.730Z,2.60
2019-02-12T19:03:38.408Z,2.60
2019-02-12T19:06:06.134Z,2.60
2019-02-12T19:08:33.719Z,2.50
2019-02-12T19:11:01.446Z,2.50
2019-02-12T19:13:29.128Z,2.40
2019-02-12T19:15:56.674Z,2.40
2019-02-12T19:18:25.698Z,2.40
2019-02-12T19:20:53.133Z,2.40
2019-02-12T19:23:20.684Z,2.30
2019-02-12T19:25:48.136Z,2.40
2019-02-12T19:28:15.568Z,2.30
2019-02-12T19:30:43.031Z,2.30
2019-02-12T19:33:10.477Z,2.20
2019-02-12T19:35:37.961Z,2.20
2019-02-12T19:38:05.371Z,2.20
2019-02-12T19:40:34.155Z,2.10
2019-02-12T19:43:01.757Z,2.10
2019-02-12T19:45:29.905Z,2.10
2019-02-12T19:47:57.378Z,2.00
2019-02-12T19:50:24.834Z,2.10
2019-02-12T19:52:52.381Z,2.00
2019-02-12T19:55:20.279Z,2.00
2019-02-12T19:57:47.795Z,2.00
2019-02-12T20:00:18.665Z,1.90
2019-02-12T20:02:46.154Z,1.90
2019-02-12T20:05:13.622Z,1.90
2019-02-12T20:07:41.154Z,1.90
2019-02-12T20:10:08.651Z,1.90
2019-02-12T20:12:36.176Z,1.90
2019-02-12T20:15:04.575Z,1.90
2019-02-12T20:17:32.192Z,1.90
2019-02-12T20:19:59.806Z,1.90
2019-02-12T20:22:27.211Z,1.90
2019-02-12T20:24:54.897Z,1.90
2019-02-12T20:27:22.396Z,2.00
2019-02-12T20:29:50.014Z,1.90
2019-02-12T20:32:17.492Z,2.00
2019-02-12T20:34:45.004Z,2.00
2019-02-12T20:37:12.710Z,1.90
2019-02-12T20:39:40.338Z,1.90
2019-02-12T20:42:07.843Z,1.90
2019-02-12T20:44:35.345Z,1.90
2019-02-12T20:47:04.004Z,1.90
2019-02-12T20:49:31.628Z,1.90
2019-02-12T20:51:59.154Z,1.80
2019-02-12T20:54:26.663Z,1.80
2019-02-12T20:56:54.559Z,1.80
2019-02-12T20:59:22.386Z,1.80
2019-02-12T21:01:49.917Z,1.80
2019-02-12T21:04:17.407Z,1.80
2019-02-12T21:06:45.039Z,1.90
2019-02-12T21:09:12.794Z,1.80
2019-02-12T21:11:40.589Z,1.80
2019-02-12T21:14:08.056Z,1.80
2019-02-12T21:16:35.515Z,1.80
2019-02-12T21:19:02.995Z,1.70
2019-02-12T21:21:30.455Z,1.70
2019-02-12T21:23:58.050Z,1.70
2019-02-12T21:26:25.544Z,1.70
2019-02-12T21:28:53.002Z,1.70
2019-02-12T21:31:20.337Z,1.70
2019-02-12T21:33:47.834Z,1.70
2019-02-12T21:36:15.395Z,1.60
2019-02-12T21:38:43.325Z,1.60
2019-02-12T21:41:11.908Z,1.50
2019-02-12T21:43:39.348Z,1.50
2019-02-12T21:46:06.843Z,1.60
2019-02-12T21:48:34.482Z,1.50
2019-02-12T21:51:01.987Z,1.50
2019-02-12T21:53:30.111Z,1.50
2019-02-12T21:55:57.819Z,1.40
2019-02-12T21:58:25.652Z,1.40
2019-02-12T22:00:53.172Z,1.40
2019-02-12T22:03:21.401Z,1.40
2019-02-12T22:05:48.978Z,1.40
2019-02-12T22:08:16.436Z,1.30
2019-02-12T22:10:46.336Z,1.30
2019-02-12T22:13:13.201Z,1.30
2019-02-12T22:15:40.665Z,1.20
2019-02-12T22:18:08.020Z,1.20
2019-02-12T22:20:35.930Z,1.20
2019-02-12T22:23:03.643Z,1.10
2019-02-12T22:25:31.517Z,1.10
2019-02-12T22:28:00.164Z,1.10
2019-02-12T22:30:28.596Z,1.00
2019-02-12T22:32:56.201Z,1.00
2019-02-12T22:35:23.653Z,1.00
2019-02-12T22:37:51.158Z,0.90
2019-02-12T22:40:18.637Z,0.90
2019-02-12T22:42:46.132Z,0.90
2019-02-12T22:45:15.365Z,0.90
2019-02-12T22:47:45.270Z,0.90
2019-02-12T22:50:13.156Z,0.90
2019-02-12T22:52:40.672Z,0.80
2019-02-12T22:55:08.182Z,0.90
2019-02-12T22:57:35.629Z,0.80
2019-02-12T23:00:10.187Z,0.80
2019-02-12T23:02:39.208Z,0.90
2019-02-12T23:05:06.850Z,0.90
2019-02-12T23:07:34.455Z,0.80
2019-02-12T23:10:02.048Z,0.80
2019-02-12T23:12:31.787Z,0.80
2019-02-12T23:14:59.469Z,0.70
2019-02-12T23:17:26.928Z,0.70
2019-02-12T23:19:54.379Z,0.70
2019-02-12T23:22:21.832Z,0.70
2019-02-12T23:24:49.291Z,0.60
2019-02-12T23:27:17.296Z,0.60
2019-02-12T23:29:44.798Z,0.60
2019-02-12T23:32:12.318Z,0.60
2019-02-12T23:34:39.893Z,0.50
2019-02-12T23:37:08.631Z,0.50
2019-02-12T23:39:37.808Z,0.40
2019-02-12T23:42:05.676Z,0.40
2019-02-12T23:44:33.184Z,0.40
2019-02-12T23:47:00.674Z,0.40
2019-02-12T23:49:28.166Z,0.40
2019-02-12T23:51:56.521Z,0.30
2019-02-12T23:54:24.340Z,0.30
2019-02-12T23:56:51.800Z,0.30
2019-02-12T23:59:19.282Z,0.30
